Prachinburi, Thailand

11:32 AM ICT op 01 april 2015 (GMT +0700)
Bangkok International | | Change Station
CLOSE
Current Station
Luchthaven
Location: Bangkok (Don Mueang),
Geometrische hoogte: 13 ft
Nabije weerstations

Hoogte 13 ft 13.92 °N, 100.61 °E | Updated 32 minutes ago

Mostly Cloudy
Merendeels bewolkt
93 °F
Voelt als 102 °F
N
8
Wind Variabel Wind van ZW

Vandaag
Hoog -- | Laag -- °F
--% Kans op neerslag
Gisteren
Hoog -- | Laag -- °F
Precip. -- inches
6:10 AM 6:26 PM
Wassende maan, 90% visible
Druk 29.86 inches
Zicht 6.2 mijlen
Wolken Gering 2500 ft
Merendeels bewolkt 30000 ft
Warmteindex 102 °F
Dauwpunt 73 °F
Vochtigheid 52%
Neerslag 0.00 inches
Dikte sneeuw Niet beschikbaar.
UV 9 van de 12
Pollen Niet beschikbaar.
Luchtkwaliteit Niet beschikbaar.
Flu Activity Niet beschikbaar.
METAR VTBD 010400Z 22007KT 180V260 9999 FEW025 BKN300 34/23 Q1011 NOSIG

More Conditions Fewer Conditions

Druk 29.86 inches
Zicht 6.2 mijlen
Wolken Gering 2500 ft
Merendeels bewolkt 30000 ft
Warmteindex 102 °F
Dauwpunt 73 °F
Vochtigheid 52%
Neerslag 0.00 inches
Dikte sneeuw Niet beschikbaar.
UV 9 van de 12
Pollen Niet beschikbaar.
Luchtkwaliteit Niet beschikbaar.
Flu Activity Niet beschikbaar.
METAR VTBD 010400Z 22007KT 180V260 9999 FEW025 BKN300 34/23 Q1011 NOSIG

More Conditions Fewer Conditions

10-Day Weather Forecast

Almanac

Astronomie

Apr. 01, 2015 Opkomst Ondergang
Werkelijke tijd
Burgerlijke schemering
Nautische schemering
Astronomische schemering
Maan
Golflengte van het zichtbare licht
Daglengte
Tomorrow will be .
, % of the Moon is Illuminated

Extremen vandaag

Country Highs Country Lows

Community

WunderPhotos

Upload Photos

1,809,919 foto’s ge-upload!

WunderBlogs® & News

Nearby

Luchtkwaliteit

  Luchtkwaliteit LK-index Verontreinigende stof
Not available.

Dikte sneeuw

Station Depth Geometrische hoogte

Aardbevingen

Stad Distance Mag. Time & Date
Minimum magnitude displayed is 2.5.

Watertemperatuur langs de kust

Plaats Temperatuur

Stations

Nabije weerstations

Locatie station Temp. Gevoelstemperatuur Dauwpunt Vochtigheid Wind Precip. Hoogte Geactualiseerd Type